Time;durP1;ratioP1;P1;durP2;ratioP2;P2;SDS_P1;SDS_P2;PMS_P1;PMS_P2;Temp;Humidity;BMP_temperature;BMP_pressure;BME280_temperature;BME280_humidity;BME280_pressure;Samples;Min_cycle;Max_cycle;Signal;HPM_P1;HPM_P2
2024/03/01 00:01:50;;;;;;;75.32;27.42;;;;;;;;;;5980164;24;20031;-68
2024/03/01 00:04:17;;;;;;;76.67;29.50;;;;;;;;;;5954841;24;20059;-70
2024/03/01 00:06:44;;;;;;;72.10;28.20;;;;;;;;;;5954871;24;20119;-70
2024/03/01 00:09:10;;;;;;;71.77;29.13;;;;;;;;;;5954676;24;20008;-71
2024/03/01 00:11:35;;;;;;;72.23;27.73;;;;;;;;;;5979465;24;20014;-68
2024/03/01 00:14:01;;;;;;;77.23;28.07;;;;;;;;;;5955288;24;20056;-68
2024/03/01 00:16:27;;;;;;;69.10;28.63;;;;;;;;;;5979074;24;20004;-69
2024/03/01 00:18:53;;;;;;;74.53;28.03;;;;;;;;;;5955396;24;20012;-69
2024/03/01 00:21:19;;;;;;;66.73;27.73;;;;;;;;;;5955087;24;20068;-69
2024/03/01 00:23:45;;;;;;;75.37;30.00;;;;;;;;;;5979072;24;20012;-70
2024/03/01 00:26:10;;;;;;;68.67;27.93;;;;;;;;;;5954661;24;20097;-68
2024/03/01 00:28:37;;;;;;;76.97;28.23;;;;;;;;;;5979524;24;20067;-69
2024/03/01 00:31:03;;;;;;;78.03;29.60;;;;;;;;;;5979334;24;20383;-71
2024/03/01 00:33:29;;;;;;;73.00;30.43;;;;;;;;;;5979415;24;20042;-70
2024/03/01 00:35:55;;;;;;;75.50;27.03;;;;;;;;;;5955232;24;20011;-69
2024/03/01 00:38:21;;;;;;;85.93;28.80;;;;;;;;;;5981488;24;20100;-70
2024/03/01 00:40:46;;;;;;;78.93;28.97;;;;;;;;;;5980977;24;20043;-69
2024/03/01 00:43:12;;;;;;;78.33;30.97;;;;;;;;;;5981393;24;20094;-68
2024/03/01 00:45:39;;;;;;;76.10;29.67;;;;;;;;;;5980746;24;20004;-69
2024/03/01 00:48:09;;;;;;;80.13;30.47;;;;;;;;;;5981070;24;20004;-69
2024/03/01 00:50:35;;;;;;;72.60;29.20;;;;;;;;;;5955512;24;20339;-69
2024/03/01 00:53:01;;;;;;;74.55;31.23;;;;;;;;;;5956441;24;20008;-71
2024/03/01 00:55:26;;;;;;;80.72;30.13;;;;;;;;;;5980222;23;20019;-69
2024/03/01 00:57:52;;;;;;;75.75;28.88;;;;;;;;;;5957508;24;20036;-69
2024/03/01 01:00:18;;;;;;;74.43;28.88;;;;;;;;;;5982275;24;20256;-70
2024/03/01 01:02:43;;;;;;;71.77;27.93;;;;;;;;;;5981748;24;20061;-69
2024/03/01 01:05:11;;;;;;;81.00;29.63;;;;;;;;;;5982705;24;20008;-70
2024/03/01 01:07:37;;;;;;;79.00;30.17;;;;;;;;;;5981134;24;20402;-69
2024/03/01 01:10:05;;;;;;;84.65;29.50;;;;;;;;;;5981131;24;20019;-70
2024/03/01 01:12:31;;;;;;;92.23;32.50;;;;;;;;;;5955859;24;20441;-70
2024/03/01 01:14:56;;;;;;;91.73;32.60;;;;;;;;;;5980943;24;20011;-69
2024/03/01 01:17:22;;;;;;;87.60;33.40;;;;;;;;;;5981044;24;20043;-68
2024/03/01 01:19:48;;;;;;;88.87;31.73;;;;;;;;;;5955832;24;20077;-69
2024/03/01 01:22:14;;;;;;;79.83;30.53;;;;;;;;;;5956589;24;20016;-68
2024/03/01 01:24:40;;;;;;;95.07;32.63;;;;;;;;;;5955303;24;20457;-71
2024/03/01 01:27:06;;;;;;;70.50;28.10;;;;;;;;;;5955560;24;20004;-70
2024/03/01 01:29:31;;;;;;;73.20;29.67;;;;;;;;;;5955825;24;20045;-69
2024/03/01 01:31:57;;;;;;;72.70;29.57;;;;;;;;;;5981181;24;20380;-68
2024/03/01 01:34:22;;;;;;;74.85;30.65;;;;;;;;;;5981257;24;20008;-71
2024/03/01 01:36:48;;;;;;;77.10;29.67;;;;;;;;;;5956983;24;20004;-69
2024/03/01 01:39:13;;;;;;;88.03;30.97;;;;;;;;;;5957781;24;20388;-70
2024/03/01 01:41:39;;;;;;;95.50;34.37;;;;;;;;;;5983320;24;20042;-69
2024/03/01 01:44:05;;;;;;;94.40;33.40;;;;;;;;;;5982394;24;20012;-69
2024/03/01 01:46:30;;;;;;;91.60;31.53;;;;;;;;;;5981799;24;20008;-70
2024/03/01 01:48:57;;;;;;;95.53;34.80;;;;;;;;;;5956143;24;20180;-70
2024/03/01 01:51:23;;;;;;;101.10;34.00;;;;;;;;;;5981369;23;20081;-69
2024/03/01 01:53:49;;;;;;;100.23;35.10;;;;;;;;;;5957219;24;20012;-71
2024/03/01 01:56:14;;;;;;;94.73;33.23;;;;;;;;;;5984100;23;20077;-69
2024/03/01 01:58:43;;;;;;;79.10;31.27;;;;;;;;;;5960398;24;20016;-69
2024/03/01 02:01:09;;;;;;;84.90;31.63;;;;;;;;;;5960710;24;20138;-68
2024/03/01 02:03:38;;;;;;;77.07;31.53;;;;;;;;;;5959832;24;20012;-70
2024/03/01 02:06:05;;;;;;;73.93;28.63;;;;;;;;;;5958434;24;20008;-69
2024/03/01 02:08:35;;;;;;;72.00;29.43;;;;;;;;;;5955741;24;20016;-70
2024/03/01 02:11:02;;;;;;;70.95;29.77;;;;;;;;;;5955858;24;20012;-68
2024/03/01 02:13:28;;;;;;;72.30;29.77;;;;;;;;;;5980286;24;20004;-69
2024/03/01 02:15:54;;;;;;;80.07;30.30;;;;;;;;;;5955601;24;20026;-68
2024/03/01 02:18:21;;;;;;;83.17;31.63;;;;;;;;;;5980610;24;20084;-69
2024/03/01 02:21:06;;;;;;;82.07;32.40;;;;;;;;;;5955497;24;20082;-70
2024/03/01 02:23:32;;;;;;;68.40;30.37;;;;;;;;;;5956019;24;20011;-70
2024/03/01 02:25:58;;;;;;;67.53;29.53;;;;;;;;;;5955429;24;20008;-69
2024/03/01 02:28:24;;;;;;;71.53;29.57;;;;;;;;;;5956181;24;20004;-69
2024/03/01 02:30:52;;;;;;;83.93;31.17;;;;;;;;;;5979713;24;20004;-71
2024/03/01 02:33:19;;;;;;;83.33;31.97;;;;;;;;;;5955557;24;20087;-70
2024/03/01 02:35:45;;;;;;;81.60;32.37;;;;;;;;;;5980576;24;20105;-67
2024/03/01 02:38:11;;;;;;;82.90;31.80;;;;;;;;;;5955801;24;20016;-69
2024/03/01 02:40:37;;;;;;;80.23;31.17;;;;;;;;;;5955060;24;20506;-71
2024/03/01 02:43:03;;;;;;;79.57;32.23;;;;;;;;;;5955034;24;20426;-68
2024/03/01 02:45:28;;;;;;;82.30;29.93;;;;;;;;;;5979665;24;20439;-68
2024/03/01 02:47:55;;;;;;;69.10;29.97;;;;;;;;;;5955484;24;20016;-70
2024/03/01 02:50:20;;;;;;;73.33;29.40;;;;;;;;;;5955234;24;20443;-69
2024/03/01 02:52:46;;;;;;;83.47;29.60;;;;;;;;;;5954908;24;20075;-69
2024/03/01 02:55:19;;;;;;;81.17;30.10;;;;;;;;;;5954655;23;20039;-69
2024/03/01 02:57:47;;;;;;;81.20;31.33;;;;;;;;;;5979886;24;20019;-70
2024/03/01 03:00:14;;;;;;;77.30;30.13;;;;;;;;;;5980016;24;20039;-70
2024/03/01 03:02:40;;;;;;;78.70;30.57;;;;;;;;;;5954394;24;20018;-68
2024/03/01 03:05:06;;;;;;;70.70;29.13;;;;;;;;;;5980066;24;20426;-69
2024/03/01 03:07:31;;;;;;;66.97;29.03;;;;;;;;;;5931657;24;20031;-70
2024/03/01 03:09:57;;;;;;;69.30;27.57;;;;;;;;;;5979808;24;20032;-69
2024/03/01 03:12:22;;;;;;;74.87;28.63;;;;;;;;;;5980149;24;20382;-70
2024/03/01 03:14:48;;;;;;;76.10;29.13;;;;;;;;;;5955104;24;20008;-69
2024/03/01 03:17:14;;;;;;;74.23;29.13;;;;;;;;;;5955315;24;20011;-69
2024/03/01 03:19:39;;;;;;;68.43;28.47;;;;;;;;;;5954948;24;20008;-70
2024/03/01 03:22:08;;;;;;;68.17;28.10;;;;;;;;;;5979899;24;20147;-69
2024/03/01 03:24:34;;;;;;;66.10;28.37;;;;;;;;;;5954597;24;20015;-69
2024/03/01 03:27:00;;;;;;;67.13;28.40;;;;;;;;;;5979857;24;20064;-69
2024/03/01 03:29:26;;;;;;;69.07;27.80;;;;;;;;;;5954746;24;20036;-70
2024/03/01 03:31:52;;;;;;;62.20;27.20;;;;;;;;;;5955315;24;20004;-70
2024/03/01 03:34:17;;;;;;;66.50;27.60;;;;;;;;;;5979477;24;20004;-67
2024/03/01 03:36:43;;;;;;;61.17;27.07;;;;;;;;;;5979688;24;20015;-70
2024/03/01 03:39:09;;;;;;;63.00;26.00;;;;;;;;;;5931902;24;20042;-70
2024/03/01 03:41:35;;;;;;;59.30;25.80;;;;;;;;;;5955165;24;20012;-69
2024/03/01 03:44:01;;;;;;;58.43;25.70;;;;;;;;;;5979958;24;20007;-70
2024/03/01 03:46:27;;;;;;;56.10;25.90;;;;;;;;;;5979757;24;20011;-69
2024/03/01 03:48:53;;;;;;;55.73;24.97;;;;;;;;;;5979454;24;20008;-69
2024/03/01 03:51:29;;;;;;;68.17;26.53;;;;;;;;;;5979318;23;20007;-68
2024/03/01 03:53:58;;;;;;;64.40;25.73;;;;;;;;;;5931316;24;20041;-70
2024/03/01 03:56:24;;;;;;;60.57;25.97;;;;;;;;;;5979514;23;20027;-71
2024/03/01 03:58:50;;;;;;;62.53;25.97;;;;;;;;;;5954243;24;20401;-69
2024/03/01 04:01:16;;;;;;;60.50;25.03;;;;;;;;;;5954379;24;20438;-69
2024/03/01 04:03:42;;;;;;;66.97;27.07;;;;;;;;;;5954256;24;20019;-69
2024/03/01 04:06:08;;;;;;;60.00;25.50;;;;;;;;;;5979215;24;20008;-72
2024/03/01 04:08:38;;;;;;;63.73;27.00;;;;;;;;;;5954813;24;20035;-68
2024/03/01 04:11:05;;;;;;;65.80;27.63;;;;;;;;;;5956753;24;20298;-70
2024/03/01 04:13:40;;;;;;;59.60;26.57;;;;;;;;;;5956301;24;20012;-70
2024/03/01 04:16:06;;;;;;;56.20;24.80;;;;;;;;;;5957174;24;20076;-69
2024/03/01 04:18:37;;;;;;;58.43;24.60;;;;;;;;;;5956227;24;20062;-69
2024/03/01 04:21:05;;;;;;;52.10;23.40;;;;;;;;;;5981670;24;20039;-71
2024/03/01 04:23:31;;;;;;;60.63;25.23;;;;;;;;;;5956271;24;20063;-69
2024/03/01 04:25:57;;;;;;;61.57;25.77;;;;;;;;;;5981153;24;20036;-70
2024/03/01 04:28:27;;;;;;;54.03;24.43;;;;;;;;;;5956679;24;20012;-70
2024/03/01 04:30:53;;;;;;;58.97;24.90;;;;;;;;;;5956412;24;20386;-69
2024/03/01 04:33:19;;;;;;;57.17;24.93;;;;;;;;;;5957149;24;20095;-69
2024/03/01 04:35:45;;;;;;;60.67;25.00;;;;;;;;;;5980876;24;20004;-70
2024/03/01 04:38:11;;;;;;;54.20;23.40;;;;;;;;;;5980997;24;20008;-70
2024/03/01 04:40:42;;;;;;;57.80;24.80;;;;;;;;;;5956281;24;20626;-70
2024/03/01 04:43:08;;;;;;;48.83;23.10;;;;;;;;;;5981340;24;20008;-68
2024/03/01 04:45:34;;;;;;;54.40;26.13;;;;;;;;;;5956068;24;20071;-68
2024/03/01 04:48:00;;;;;;;55.10;24.27;;;;;;;;;;5956630;24;20072;-71
2024/03/01 04:50:26;;;;;;;60.83;24.13;;;;;;;;;;5956104;24;20004;-69
2024/03/01 04:52:52;;;;;;;58.87;25.60;;;;;;;;;;5956487;24;20012;-71
2024/03/01 04:55:18;;;;;;;60.27;25.57;;;;;;;;;;5980932;23;20062;-69
2024/03/01 04:57:44;;;;;;;55.40;23.93;;;;;;;;;;5980757;24;20375;-69
2024/03/01 05:00:13;;;;;;;55.50;23.63;;;;;;;;;;5982391;24;20003;-69
2024/03/01 05:02:40;;;;;;;49.23;22.90;;;;;;;;;;5956879;24;20012;-69
2024/03/01 05:05:10;;;;;;;52.93;23.63;;;;;;;;;;5982792;24;20075;-69
2024/03/01 05:07:38;;;;;;;49.63;22.27;;;;;;;;;;5981884;24;20008;-69
2024/03/01 05:10:08;;;;;;;50.23;23.93;;;;;;;;;;5983779;24;20016;-69
2024/03/01 05:12:38;;;;;;;55.20;24.83;;;;;;;;;;5935456;24;20012;-69
2024/03/01 05:15:05;;;;;;;54.17;23.30;;;;;;;;;;5958042;24;20397;-67
2024/03/01 05:17:32;;;;;;;49.20;21.20;;;;;;;;;;5958205;24;20012;-72
2024/03/01 05:19:58;;;;;;;52.77;24.00;;;;;;;;;;5957172;24;20008;-69
2024/03/01 05:22:24;;;;;;;51.20;23.37;;;;;;;;;;5980834;24;20019;-69
2024/03/01 05:24:49;;;;;;;49.83;23.00;;;;;;;;;;5981074;24;20337;-68
2024/03/01 05:27:16;;;;;;;48.30;23.83;;;;;;;;;;5981118;24;20008;-70
2024/03/01 05:29:42;;;;;;;54.60;23.97;;;;;;;;;;5981086;24;20012;-69
2024/03/01 05:32:09;;;;;;;49.67;22.97;;;;;;;;;;5956067;24;20064;-69
2024/03/01 05:34:34;;;;;;;42.53;20.47;;;;;;;;;;5955422;24;20434;-69
2024/03/01 05:37:02;;;;;;;45.03;22.13;;;;;;;;;;5980394;24;20019;-68
2024/03/01 05:39:28;;;;;;;56.30;23.47;;;;;;;;;;5933050;24;20013;-70
2024/03/01 05:41:54;;;;;;;53.57;24.07;;;;;;;;;;5980921;24;20080;-71
2024/03/01 05:44:19;;;;;;;47.43;22.70;;;;;;;;;;5980228;24;20394;-69
2024/03/01 05:46:45;;;;;;;44.57;21.23;;;;;;;;;;5954499;24;20016;-69
2024/03/01 05:49:11;;;;;;;43.27;22.40;;;;;;;;;;5933065;23;20019;-71
2024/03/01 05:51:37;;;;;;;45.80;20.83;;;;;;;;;;5957095;24;20016;-71
2024/03/01 05:54:03;;;;;;;51.47;22.10;;;;;;;;;;5959269;24;20016;-72
2024/03/01 05:56:29;;;;;;;48.93;23.53;;;;;;;;;;5983582;23;20022;-72
2024/03/01 05:58:56;;;;;;;52.13;22.07;;;;;;;;;;5959855;24;20016;-71
2024/03/01 06:01:22;;;;;;;43.63;21.47;;;;;;;;;;5960217;24;20095;-70
2024/03/01 06:03:48;;;;;;;51.90;21.97;;;;;;;;;;5960554;24;20015;-72
2024/03/01 06:06:18;;;;;;;45.23;22.03;;;;;;;;;;5960755;24;20012;-72
2024/03/01 06:08:45;;;;;;;45.03;22.50;;;;;;;;;;5985442;24;20012;-71
2024/03/01 06:11:10;;;;;;;48.07;21.67;;;;;;;;;;5937124;24;20016;-72
2024/03/01 06:13:38;;;;;;;48.50;23.50;;;;;;;;;;5984754;24;20004;-72
2024/03/01 06:16:04;;;;;;;49.53;22.83;;;;;;;;;;5984149;24;20060;-71
2024/03/01 06:18:30;;;;;;;42.37;21.03;;;;;;;;;;5959560;24;20032;-72
2024/03/01 06:20:55;;;;;;;49.07;22.30;;;;;;;;;;5959457;24;20367;-71
2024/03/01 06:23:21;;;;;;;43.63;22.23;;;;;;;;;;5982866;24;20015;-71
2024/03/01 06:25:46;;;;;;;47.23;24.00;;;;;;;;;;5959350;24;20019;-72
2024/03/01 06:28:12;;;;;;;43.87;21.97;;;;;;;;;;5984180;24;20091;-74
2024/03/01 06:30:38;;;;;;;46.87;22.40;;;;;;;;;;5959802;24;20024;-73
2024/03/01 06:33:04;;;;;;;43.10;20.53;;;;;;;;;;5984381;24;20032;-74
2024/03/01 06:35:30;;;;;;;39.50;22.17;;;;;;;;;;5959377;24;20004;-75
2024/03/01 06:37:56;;;;;;;42.83;20.53;;;;;;;;;;5959247;24;20016;-73
2024/03/01 06:40:22;;;;;;;46.17;21.10;;;;;;;;;;5959954;24;20478;-73
2024/03/01 06:42:48;;;;;;;44.00;22.00;;;;;;;;;;5960478;24;20047;-73
2024/03/01 06:45:13;;;;;;;37.87;20.77;;;;;;;;;;5961263;24;20024;-73
2024/03/01 06:47:40;;;;;;;44.67;21.53;;;;;;;;;;5976142;24;20091;-71
2024/03/01 06:50:09;;;;;;;42.23;22.10;;;;;;;;;;5959327;24;20015;-72
2024/03/01 06:52:36;;;;;;;43.97;21.20;;;;;;;;;;5959181;24;20012;-72
2024/03/01 06:55:01;;;;;;;41.67;20.30;;;;;;;;;;5958142;24;20357;-74
2024/03/01 06:57:27;;;;;;;39.17;19.97;;;;;;;;;;5948601;24;20093;-71
2024/03/01 06:59:53;;;;;;;44.40;20.10;;;;;;;;;;5956113;24;20068;-73
2024/03/01 07:02:18;;;;;;;40.50;20.00;;;;;;;;;;5956749;24;20075;-73
2024/03/01 07:04:52;;;;;;;34.97;19.83;;;;;;;;;;5126470;27;20946;-72
2024/03/01 07:07:18;;;;;;;34.33;19.20;;;;;;;;;;5122480;27;20034;-72
2024/03/01 07:09:44;;;;;;;47.23;23.20;;;;;;;;;;5132032;27;20303;-72
2024/03/01 07:12:10;;;;;;;41.73;19.87;;;;;;;;;;5116625;27;20584;-71
2024/03/01 07:14:35;;;;;;;43.00;20.57;;;;;;;;;;5106474;27;20054;-72
2024/03/01 07:17:01;;;;;;;45.47;19.43;;;;;;;;;;5127379;27;20031;-71
2024/03/01 07:19:27;;;;;;;42.70;19.47;;;;;;;;;;5126860;27;20027;-71
2024/03/01 07:21:54;;;;;;;41.63;21.17;;;;;;;;;;5126100;27;20421;-73
2024/03/01 07:24:19;;;;;;;40.07;21.77;;;;;;;;;;5125236;27;20027;-72
2024/03/01 07:26:45;;;;;;;37.83;19.10;;;;;;;;;;5107919;28;21023;-71
2024/03/01 07:29:11;;;;;;;39.83;19.87;;;;;;;;;;5128626;27;20034;-70
2024/03/01 07:31:36;;;;;;;41.80;20.33;;;;;;;;;;5108451;28;20060;-71
2024/03/01 07:34:02;;;;;;;42.53;20.67;;;;;;;;;;5126517;27;20016;-71
2024/03/01 07:36:27;;;;;;;41.97;19.10;;;;;;;;;;5124254;27;20664;-73
2024/03/01 07:38:53;;;;;;;37.47;20.33;;;;;;;;;;5125000;27;20673;-73
2024/03/01 07:41:21;;;;;;;36.17;19.10;;;;;;;;;;5108215;28;20027;-75
2024/03/01 07:43:47;;;;;;;43.23;19.77;;;;;;;;;;5108666;27;20026;-73
2024/03/01 07:46:13;;;;;;;36.07;18.63;;;;;;;;;;5113230;28;20067;-73
2024/03/01 07:48:39;;;;;;;38.03;18.27;;;;;;;;;;5107715;27;20074;-72
2024/03/01 07:51:05;;;;;;;45.67;19.43;;;;;;;;;;5108022;27;20447;-73
2024/03/01 07:53:31;;;;;;;35.40;18.00;;;;;;;;;;5108920;27;20027;-72
2024/03/01 07:55:56;;;;;;;40.80;19.43;;;;;;;;;;5144888;27;20079;-72
2024/03/01 07:58:24;;;;;;;34.33;17.83;;;;;;;;;;5104462;28;20110;-71
2024/03/01 08:00:50;;;;;;;47.93;20.07;;;;;;;;;;5114717;27;20036;-71
2024/03/01 08:03:16;;;;;;;43.47;19.47;;;;;;;;;;5102637;28;20035;-72
2024/03/01 08:05:42;;;;;;;41.10;19.03;;;;;;;;;;5107620;27;20522;-72
2024/03/01 08:08:08;;;;;;;37.37;20.03;;;;;;;;;;5087361;28;20031;-72
2024/03/01 08:10:44;;;;;;;44.23;22.13;;;;;;;;;;5103518;28;20054;-72
2024/03/01 08:13:11;;;;;;;48.57;21.27;;;;;;;;;;5123636;27;20030;-70
2024/03/01 08:15:37;;;;;;;43.97;21.10;;;;;;;;;;5092616;28;20137;-70
2024/03/01 08:18:15;;;;;;;46.43;22.30;;;;;;;;;;5107975;27;20491;-71
2024/03/01 08:21:05;;;;;;;44.03;20.73;;;;;;;;;;5092915;28;20505;-72
2024/03/01 08:23:41;;;;;;;46.47;22.27;;;;;;;;;;5099819;27;20057;-72
2024/03/01 08:26:15;;;;;;;45.13;22.80;;;;;;;;;;5088327;27;20027;-71
2024/03/01 08:28:44;;;;;;;44.40;20.10;;;;;;;;;;5104386;28;20492;-71
2024/03/01 08:31:18;;;;;;;49.33;21.20;;;;;;;;;;5096105;27;20027;-71
2024/03/01 08:33:44;;;;;;;47.40;21.50;;;;;;;;;;5090275;27;20066;-70
2024/03/01 08:36:09;;;;;;;42.80;20.63;;;;;;;;;;5105487;27;20455;-72
2024/03/01 08:38:44;;;;;;;46.93;22.23;;;;;;;;;;5080816;28;20448;-73
2024/03/01 08:41:10;;;;;;;44.57;21.33;;;;;;;;;;5107055;27;20050;-71
2024/03/01 08:43:40;;;;;;;43.27;20.87;;;;;;;;;;5092268;27;20038;-71
2024/03/01 08:46:22;;;;;;;45.77;20.47;;;;;;;;;;5091520;27;20031;-74
2024/03/01 08:48:48;;;;;;;;;;;;;;;;;;5107346;28;20050;-76
2024/03/01 08:51:15;;;;;;;47.57;21.57;;;;;;;;;;5084589;28;19915;-73
2024/03/01 08:53:40;;;;;;;59.33;27.97;;;;;;;;;;5084396;27;20583;-73
2024/03/01 08:56:17;;;;;;;50.73;21.47;;;;;;;;;;5108738;27;20035;-74
2024/03/01 08:58:43;;;;;;;40.50;20.40;;;;;;;;;;5081463;28;20028;-73
2024/03/01 09:01:44;;;;;;;37.97;19.77;;;;;;;;;;5114929;27;20031;-73
2024/03/01 09:04:31;;;;;;;50.37;25.03;;;;;;;;;;5093781;27;20046;-72
2024/03/01 09:07:13;;;;;;;41.93;20.37;;;;;;;;;;5112272;27;20039;-71
2024/03/01 09:09:39;;;;;;;41.70;20.75;;;;;;;;;;5100925;27;20027;-72
2024/03/01 09:12:12;;;;;;;41.73;20.23;;;;;;;;;;5125536;27;20069;-73
2024/03/01 09:14:37;;;;;;;36.07;19.33;;;;;;;;;;5086004;28;20085;-74
2024/03/01 09:17:06;;;;;;;37.90;20.00;;;;;;;;;;5112281;27;20022;-71
2024/03/01 09:19:40;;;;;;;45.10;20.63;;;;;;;;;;5116948;27;20020;-73
2024/03/01 09:22:07;;;;;;;41.90;21.80;;;;;;;;;;5105371;28;20027;-77
2024/03/01 09:24:37;;;;;;;43.75;21.58;;;;;;;;;;5105220;27;20027;-73
2024/03/01 09:27:11;;;;;;;35.97;20.17;;;;;;;;;;5089151;27;20034;-75
2024/03/01 09:29:37;;;;;;;42.97;19.45;;;;;;;;;;5099384;28;20027;-75
2024/03/01 09:32:04;;;;;;;41.67;21.00;;;;;;;;;;5109820;27;20019;-76
2024/03/01 09:34:37;;;;;;;44.63;21.13;;;;;;;;;;5123094;27;20023;-73
2024/03/01 09:37:08;;;;;;;41.67;18.95;;;;;;;;;;5114122;27;20049;-78
2024/03/01 09:39:34;;;;;;;38.17;19.45;;;;;;;;;;5107119;27;20064;-75
2024/03/01 09:42:04;;;;;;;48.83;24.88;;;;;;;;;;5121177;27;20027;-74
2024/03/01 09:45:01;;;;;;;52.28;23.02;;;;;;;;;;5122786;27;20076;-73
2024/03/01 09:48:00;;;;;;;40.63;21.50;;;;;;;;;;5099694;27;20026;-71
2024/03/01 09:50:51;;;;;;;41.10;21.88;;;;;;;;;;5100332;28;20062;-72
2024/03/01 09:53:46;;;;;;;42.45;20.52;;;;;;;;;;5082295;28;20036;-74
2024/03/01 09:56:59;;;;;;;48.15;22.15;;;;;;;;;;5110860;28;20479;-77
2024/03/01 09:59:27;;;;;;;;;;;;;;;;;;5078394;28;20157;-75
2024/03/01 10:02:04;;;;;;;40.70;20.52;;;;;;;;;;5092727;28;19920;-75
2024/03/01 10:04:33;;;;;;;69.72;24.65;;;;;;;;;;5094916;28;20074;-75
2024/03/01 10:07:31;;;;;;;61.42;22.00;;;;;;;;;;5103587;27;20209;-75
2024/03/01 10:10:18;;;;;;;38.22;20.67;;;;;;;;;;5078528;27;20374;-76
2024/03/01 10:12:53;;;;;;;42.55;20.98;;;;;;;;;;5089912;27;20027;-75
2024/03/01 10:15:34;;;;;;;41.03;21.15;;;;;;;;;;5110550;27;20023;-75
2024/03/01 10:18:18;;;;;;;57.15;24.83;;;;;;;;;;5107220;27;20613;-75
2024/03/01 10:20:50;;;;;;;46.03;23.48;;;;;;;;;;5092232;27;20050;-75
2024/03/01 10:23:43;;;;;;;52.55;22.50;;;;;;;;;;5105149;27;20472;-75
2024/03/01 10:26:23;;;;;;;40.92;21.27;;;;;;;;;;5104562;27;20035;-76
2024/03/01 10:29:08;;;;;;;44.45;22.60;;;;;;;;;;5076655;27;20050;-74
2024/03/01 10:32:00;;;;;;;52.50;23.20;;;;;;;;;;5109764;27;20050;-73
2024/03/01 10:34:41;;;;;;;;;;;;;;;;;;5088650;28;20015;-74
2024/03/01 10:37:22;;;;;;;59.47;24.15;;;;;;;;;;5104414;27;19937;-75
2024/03/01 10:40:07;;;;;;;42.30;21.60;;;;;;;;;;5087614;28;20071;-73
2024/03/01 10:42:36;;;;;;;43.92;21.40;;;;;;;;;;5109325;27;20500;-73
2024/03/01 10:45:20;;;;;;;55.17;23.55;;;;;;;;;;5091102;28;20047;-73
2024/03/01 10:47:50;;;;;;;46.47;23.67;;;;;;;;;;5097885;28;20467;-74
2024/03/01 10:50:28;;;;;;;51.75;25.38;;;;;;;;;;5098458;28;20531;-73
2024/03/01 10:52:57;;;;;;;47.13;24.85;;;;;;;;;;5093253;28;20494;-75
2024/03/01 10:55:24;;;;;;;53.47;24.13;;;;;;;;;;5098307;28;20511;-73
2024/03/01 10:58:16;;;;;;;45.63;23.90;;;;;;;;;;5103245;28;20069;-74
2024/03/01 11:00:58;;;;;;;44.97;23.70;;;;;;;;;;5089808;28;20375;-73
2024/03/01 11:03:37;;;;;;;46.35;22.85;;;;;;;;;;5108539;28;20036;-74
2024/03/01 11:06:18;;;;;;;39.78;22.17;;;;;;;;;;5094768;28;20103;-74
2024/03/01 11:09:20;;;;;;;45.40;23.85;;;;;;;;;;5111119;28;20111;-74
2024/03/01 11:12:14;;;;;;;47.05;22.83;;;;;;;;;;5073953;28;20872;-74
2024/03/01 11:14:50;;;;;;;47.42;22.98;;;;;;;;;;5109438;28;20474;-73
2024/03/01 11:17:18;;;;;;;48.97;23.73;;;;;;;;;;5080775;28;20612;-73
2024/03/01 11:19:47;;;;;;;48.22;24.20;;;;;;;;;;5072222;28;20070;-74
2024/03/01 11:22:29;;;;;;;49.13;23.33;;;;;;;;;;5091076;28;20031;-74
2024/03/01 11:25:19;;;;;;;47.95;24.40;;;;;;;;;;5090646;28;20031;-73
2024/03/01 11:28:00;;;;;;;48.55;24.17;;;;;;;;;;5108643;28;20108;-70
2024/03/01 11:30:32;;;;;;;43.83;22.55;;;;;;;;;;5091595;28;20058;-73
2024/03/01 11:33:01;;;;;;;42.20;23.27;;;;;;;;;;5090544;28;20413;-73
2024/03/01 11:35:46;;;;;;;47.60;26.08;;;;;;;;;;5090801;28;20034;-75
2024/03/01 11:38:25;;;;;;;45.95;23.83;;;;;;;;;;5091249;28;20036;-72
2024/03/01 11:41:13;;;;;;;46.08;25.48;;;;;;;;;;5089698;28;20230;-73
2024/03/01 11:43:48;;;;;;;45.70;23.80;;;;;;;;;;5080617;28;20367;-74
2024/03/01 11:46:39;;;;;;;49.22;26.50;;;;;;;;;;5089750;28;20055;-75
2024/03/01 11:49:42;;;;;;;47.40;24.73;;;;;;;;;;5112606;28;20027;-74
2024/03/01 11:52:17;;;;;;;47.53;24.80;;;;;;;;;;5117761;27;20019;-73
2024/03/01 11:54:55;;;;;;;46.30;25.73;;;;;;;;;;5097828;28;20024;-74
2024/03/01 11:57:26;;;;;;;46.35;25.30;;;;;;;;;;5093887;28;20035;-74
2024/03/01 12:00:24;;;;;;;51.90;27.13;;;;;;;;;;5101021;28;20037;-73
2024/03/01 12:03:12;;;;;;;57.50;27.48;;;;;;;;;;5092857;27;20174;-74
2024/03/01 12:05:41;;;;;;;55.92;26.38;;;;;;;;;;5107707;27;20499;-72
2024/03/01 12:08:07;;;;;;;49.97;25.88;;;;;;;;;;5106334;27;20483;-74
2024/03/01 12:11:11;;;;;;;54.75;26.52;;;;;;;;;;5093148;28;20038;-73
2024/03/01 12:13:55;;;;;;;59.65;28.48;;;;;;;;;;5103034;27;20092;-74
2024/03/01 12:16:52;;;;;;;55.72;28.33;;;;;;;;;;5078470;27;20015;-73
2024/03/01 12:19:26;;;;;;;57.92;28.13;;;;;;;;;;5082876;27;20061;-74
2024/03/01 12:21:52;;;;;;;61.95;28.38;;;;;;;;;;5082600;28;20035;-72
2024/03/01 12:24:19;;;;;;;59.38;29.35;;;;;;;;;;5080889;28;20541;-73
2024/03/01 12:27:04;;;;;;;56.42;29.27;;;;;;;;;;5087340;28;20035;-73
2024/03/01 12:30:06;;;;;;;52.20;27.30;;;;;;;;;;5103606;28;20026;-73
2024/03/01 12:32:58;;;;;;;53.90;27.98;;;;;;;;;;5093316;27;20135;-76
2024/03/01 12:35:33;;;;;;;;;;;;;;;;;;5100885;28;20102;-73
2024/03/01 12:38:20;;;;;;;60.65;27.17;;;;;;;;;;5100426;27;19955;-73
2024/03/01 12:41:14;;;;;;;54.70;27.50;;;;;;;;;;5108956;27;20024;-74
2024/03/01 12:44:01;;;;;;;53.38;27.85;;;;;;;;;;5093102;27;20139;-73
2024/03/01 12:46:56;;;;;;;55.30;28.08;;;;;;;;;;5103014;27;20035;-72
2024/03/01 12:49:49;;;;;;;54.28;29.05;;;;;;;;;;5091439;28;20031;-73
2024/03/01 12:52:33;;;;;;;54.42;27.83;;;;;;;;;;5084811;27;20026;-73
2024/03/01 12:55:24;;;;;;;57.28;27.75;;;;;;;;;;5113854;27;20050;-73
2024/03/01 12:58:05;;;;;;;56.27;28.07;;;;;;;;;;5088778;27;20562;-74
2024/03/01 13:01:03;;;;;;;66.10;29.08;;;;;;;;;;5099415;27;20086;-74
2024/03/01 13:04:02;;;;;;;53.42;26.38;;;;;;;;;;5086277;28;20040;-72
2024/03/01 13:06:32;;;;;;;59.80;28.25;;;;;;;;;;5116465;27;20025;-73
2024/03/01 13:09:14;;;;;;;50.50;26.70;;;;;;;;;;5104109;28;20066;-73
2024/03/01 13:11:42;;;;;;;53.38;27.40;;;;;;;;;;5109965;27;20051;-72
2024/03/01 13:14:23;;;;;;;56.15;28.30;;;;;;;;;;5116681;27;20031;-73
2024/03/01 13:16:54;;;;;;;46.47;26.45;;;;;;;;;;5105884;27;20031;-75
2024/03/01 13:19:29;;;;;;;50.10;26.88;;;;;;;;;;5112749;27;20027;-74
2024/03/01 13:21:57;;;;;;;57.85;27.13;;;;;;;;;;5123759;27;20066;-73
2024/03/01 13:25:15;;;;;;;58.25;27.95;;;;;;;;;;5117018;27;20710;-72
2024/03/01 13:28:08;;;;;;;53.95;28.30;;;;;;;;;;5105373;27;20123;-77
2024/03/01 13:30:38;;;;;;;54.65;26.25;;;;;;;;;;5070884;28;20133;-72
2024/03/01 13:33:39;;;;;;;52.47;28.55;;;;;;;;;;5102505;28;20031;-73
2024/03/01 13:36:20;;;;;;;52.95;25.90;;;;;;;;;;5094189;28;20039;-73
2024/03/01 13:39:14;;;;;;;50.33;27.27;;;;;;;;;;5106941;27;20475;-75
2024/03/01 13:42:00;;;;;;;54.35;27.50;;;;;;;;;;5087280;28;20023;-75
2024/03/01 13:44:29;;;;;;;52.85;28.38;;;;;;;;;;5125637;27;20023;-73
2024/03/01 13:47:17;;;;;;;50.85;28.23;;;;;;;;;;5121281;27;20038;-74
2024/03/01 13:49:49;;;;;;;55.03;26.92;;;;;;;;;;5105227;28;20038;-74
2024/03/01 13:52:23;;;;;;;52.13;27.50;;;;;;;;;;5101199;27;20025;-75
2024/03/01 13:54:52;;;;;;;52.40;27.63;;;;;;;;;;5090451;28;20080;-75
2024/03/01 13:57:23;;;;;;;59.65;28.98;;;;;;;;;;5105478;27;20518;-75
2024/03/01 13:59:48;;;;;;;52.60;28.65;;;;;;;;;;5103393;28;20066;-74
2024/03/01 14:02:15;;;;;;;53.15;28.42;;;;;;;;;;5113273;27;20062;-72
2024/03/01 14:04:42;;;;;;;47.92;26.75;;;;;;;;;;5101101;28;20092;-74
2024/03/01 14:07:16;;;;;;;54.03;26.80;;;;;;;;;;5102134;28;20028;-75
2024/03/01 14:09:45;;;;;;;50.53;27.25;;;;;;;;;;5093946;28;20028;-75
2024/03/01 14:12:11;;;;;;;52.95;26.25;;;;;;;;;;5090594;28;20035;-75
2024/03/01 14:14:36;;;;;;;60.80;28.50;;;;;;;;;;5090636;28;20012;-74
2024/03/01 14:17:02;;;;;;;49.13;27.40;;;;;;;;;;5089716;28;20032;-73
2024/03/01 14:19:28;;;;;;;88.40;31.80;;;;;;;;;;5088717;28;20395;-72
2024/03/01 14:21:55;;;;;;;63.38;29.23;;;;;;;;;;5087291;28;20036;-73
2024/03/01 14:24:20;;;;;;;49.05;27.35;;;;;;;;;;5087148;28;20042;-70
2024/03/01 14:26:46;;;;;;;52.92;27.92;;;;;;;;;;5089405;28;20019;-73
2024/03/01 14:29:11;;;;;;;66.70;29.83;;;;;;;;;;5104698;28;20019;-74
2024/03/01 14:31:38;;;;;;;48.05;28.23;;;;;;;;;;5109226;28;20369;-74
2024/03/01 14:34:04;;;;;;;52.03;26.05;;;;;;;;;;5101209;28;20034;-75
2024/03/01 14:36:30;;;;;;;51.50;27.52;;;;;;;;;;5076723;28;20020;-72
2024/03/01 14:38:56;;;;;;;54.53;26.55;;;;;;;;;;5086197;28;20024;-71
2024/03/01 14:41:38;;;;;;;47.47;27.35;;;;;;;;;;5085764;28;20415;-73
2024/03/01 14:44:04;;;;;;;54.78;27.27;;;;;;;;;;5067203;28;20031;-74